createdAt,value
2018-03-21T00:00:02.978Z,43.32
2018-03-21T00:02:28.958Z,43.34
2018-03-21T00:04:54.926Z,43.50
2018-03-21T00:07:20.971Z,43.61
2018-03-21T00:09:46.936Z,43.23
2018-03-21T00:12:12.922Z,43.23
2018-03-21T00:14:38.954Z,43.33
2018-03-21T00:17:04.898Z,43.42
2018-03-21T00:19:30.892Z,43.49
2018-03-21T00:21:56.889Z,43.42
2018-03-21T00:24:22.894Z,43.42
2018-03-21T00:26:48.901Z,43.42
2018-03-21T00:29:14.875Z,43.36
2018-03-21T00:31:40.811Z,43.35
2018-03-21T00:34:06.781Z,43.21
2018-03-21T00:36:32.779Z,43.31
2018-03-21T00:38:58.730Z,43.21
2018-03-21T00:41:24.714Z,43.38
2018-03-21T00:43:50.693Z,43.42
2018-03-21T00:46:16.646Z,43.41
2018-03-21T00:48:42.595Z,43.16
2018-03-21T00:51:08.595Z,43.24
2018-03-21T00:53:34.569Z,43.13
2018-03-21T00:56:00.517Z,43.29
2018-03-21T00:58:26.466Z,43.29
2018-03-21T01:00:52.467Z,43.41
2018-03-21T01:03:18.426Z,43.34
2018-03-21T01:05:44.381Z,43.44
2018-03-21T01:08:10.354Z,43.41
2018-03-21T01:10:36.306Z,43.47
2018-03-21T01:13:02.289Z,43.40
2018-03-21T01:15:28.238Z,43.51
2018-03-21T01:17:54.192Z,43.48
2018-03-21T01:20:20.141Z,43.40
2018-03-21T01:22:46.194Z,43.40
2018-03-21T01:25:12.155Z,43.14
2018-03-21T01:27:38.110Z,43.22
2018-03-21T01:30:04.115Z,43.31
2018-03-21T01:32:30.091Z,43.30
2018-03-21T01:34:56.075Z,43.45
2018-03-21T01:37:22.186Z,43.27
2018-03-21T01:39:48.159Z,43.24
2018-03-21T01:42:14.141Z,43.47
2018-03-21T01:44:40.161Z,43.07
2018-03-21T01:47:06.287Z,43.24
2018-03-21T01:49:32.179Z,43.36
2018-03-21T01:51:58.135Z,43.26
2018-03-21T01:54:24.093Z,43.21
2018-03-21T01:56:50.058Z,43.30
2018-03-21T01:59:16.034Z,43.30
2018-03-21T02:01:42.002Z,43.20
2018-03-21T02:04:07.974Z,43.38
2018-03-21T02:06:33.942Z,43.31
2018-03-21T02:08:59.913Z,43.23
2018-03-21T02:11:25.901Z,43.14
2018-03-21T02:13:51.862Z,43.33
2018-03-21T02:16:17.837Z,43.17
2018-03-21T02:18:43.782Z,43.10
2018-03-21T02:21:09.723Z,43.02
2018-03-21T02:23:35.686Z,43.13
2018-03-21T02:26:01.634Z,43.23
2018-03-21T02:28:27.594Z,43.14
2018-03-21T02:30:53.538Z,43.08
2018-03-21T02:33:19.531Z,43.00
2018-03-21T02:35:45.487Z,43.03
2018-03-21T02:38:11.431Z,43.21
2018-03-21T02:40:37.396Z,43.07
2018-03-21T02:43:03.358Z,42.99
2018-03-21T02:45:29.299Z,43.13
2018-03-21T02:47:55.250Z,43.19
2018-03-21T02:50:21.233Z,43.20
2018-03-21T02:52:47.182Z,43.07
2018-03-21T02:55:13.166Z,43.03
2018-03-21T02:57:39.138Z,42.94
2018-03-21T03:00:05.102Z,43.03
2018-03-21T03:02:31.060Z,43.05
2018-03-21T03:04:57.027Z,42.99
2018-03-21T03:07:22.986Z,42.89
2018-03-21T03:09:48.949Z,43.04
2018-03-21T03:12:14.923Z,42.93
2018-03-21T03:14:40.878Z,43.13
2018-03-21T03:17:06.855Z,43.15
2018-03-21T03:19:32.837Z,42.89
2018-03-21T03:21:58.789Z,42.80
2018-03-21T03:24:24.747Z,42.89
2018-03-21T03:26:50.725Z,42.99
2018-03-21T03:29:16.687Z,42.94
2018-03-21T03:31:42.667Z,42.94
2018-03-21T03:34:08.618Z,42.85
2018-03-21T03:36:34.588Z,42.51
2018-03-21T03:39:00.559Z,42.33
2018-03-21T03:41:26.550Z,42.14
2018-03-21T03:43:52.502Z,41.91
2018-03-21T03:46:18.456Z,41.74
2018-03-21T03:48:44.434Z,42.14
2018-03-21T03:51:10.394Z,41.76
2018-03-21T03:53:36.386Z,41.41
2018-03-21T03:56:02.345Z,41.62
2018-03-21T03:58:28.319Z,41.28
2018-03-21T04:00:54.286Z,41.49
2018-03-21T04:03:20.256Z,41.45
2018-03-21T04:05:46.213Z,41.37
2018-03-21T04:08:12.166Z,41.37
2018-03-21T04:10:38.163Z,41.44
2018-03-21T04:13:04.143Z,41.34
2018-03-21T04:15:30.104Z,41.57
2018-03-21T04:17:56.071Z,41.54
2018-03-21T04:20:22.055Z,41.51
2018-03-21T04:22:48.021Z,41.55
2018-03-21T04:25:14.195Z,41.75
2018-03-21T04:27:40.251Z,41.79
2018-03-21T04:30:06.209Z,41.52
2018-03-21T04:32:32.161Z,41.69
2018-03-21T04:34:58.121Z,41.53
2018-03-21T04:37:24.081Z,41.69
2018-03-21T04:39:50.033Z,41.57
2018-03-21T04:42:16.070Z,42.25
2018-03-21T04:44:42.026Z,41.66
2018-03-21T04:47:07.990Z,41.64
2018-03-21T04:49:33.969Z,41.66
2018-03-21T04:51:59.948Z,41.54
2018-03-21T04:54:25.897Z,41.50
2018-03-21T04:56:51.861Z,41.79
2018-03-21T04:59:17.830Z,41.81
2018-03-21T05:01:43.822Z,41.86
2018-03-21T05:04:09.773Z,41.91
2018-03-21T05:06:35.738Z,41.91
2018-03-21T05:09:01.697Z,42.13
2018-03-21T05:11:27.679Z,41.81
2018-03-21T05:13:53.657Z,41.90
2018-03-21T05:16:19.617Z,42.08
2018-03-21T05:18:45.597Z,41.93
2018-03-21T05:21:11.538Z,41.84
2018-03-21T05:23:37.514Z,41.86
2018-03-21T05:26:03.463Z,42.06
2018-03-21T05:28:29.408Z,41.81
2018-03-21T05:30:55.370Z,41.72
2018-03-21T05:33:21.336Z,41.74
2018-03-21T05:35:47.308Z,41.84
2018-03-21T05:38:13.272Z,41.90
2018-03-21T05:40:39.239Z,41.92
2018-03-21T05:43:05.197Z,41.90
2018-03-21T05:45:31.179Z,41.99
2018-03-21T05:47:57.186Z,41.95
2018-03-21T05:50:23.120Z,42.03
2018-03-21T05:52:49.142Z,42.12
2018-03-21T05:55:15.123Z,42.20
2018-03-21T05:57:41.091Z,42.16
2018-03-21T06:00:07.070Z,42.37
2018-03-21T06:02:33.034Z,42.23
2018-03-21T06:04:59.037Z,42.16
2018-03-21T06:07:25.002Z,42.21
2018-03-21T06:09:50.985Z,41.96
2018-03-21T06:12:16.957Z,41.67
2018-03-21T06:14:43.011Z,41.68
2018-03-21T06:17:08.983Z,41.81
2018-03-21T06:19:34.960Z,41.69
2018-03-21T06:22:00.935Z,41.67
2018-03-21T06:24:26.894Z,41.63
2018-03-21T06:26:52.883Z,41.67
2018-03-21T06:29:18.853Z,41.56
2018-03-21T06:31:44.842Z,41.79
2018-03-21T06:34:10.798Z,41.70
2018-03-21T06:36:36.767Z,41.91
2018-03-21T06:39:02.739Z,42.06
2018-03-21T06:41:28.698Z,41.74
2018-03-21T06:43:54.673Z,41.91
2018-03-21T06:46:20.659Z,41.98
2018-03-21T06:48:46.625Z,42.03
2018-03-21T06:51:12.588Z,42.40
2018-03-21T06:53:38.576Z,42.07
2018-03-21T06:56:04.549Z,42.18
2018-03-21T06:58:30.506Z,42.16
2018-03-21T07:00:56.487Z,41.91
2018-03-21T07:03:22.455Z,41.96
2018-03-21T07:05:48.420Z,41.45
2018-03-21T07:08:14.405Z,41.37
2018-03-21T07:10:40.375Z,41.46
2018-03-21T07:13:06.349Z,41.49
2018-03-21T07:15:32.314Z,41.37
2018-03-21T07:17:58.286Z,41.43
2018-03-21T07:20:24.265Z,41.35
2018-03-21T07:22:50.310Z,41.49
2018-03-21T07:25:16.293Z,41.49
2018-03-21T07:27:42.266Z,41.51
2018-03-21T07:30:08.217Z,41.67
2018-03-21T07:32:34.198Z,41.64
2018-03-21T07:35:00.176Z,41.75
2018-03-21T07:37:26.174Z,41.81
2018-03-21T07:39:52.215Z,41.74
2018-03-21T07:42:18.182Z,41.93
2018-03-21T07:44:44.117Z,41.71
2018-03-21T07:47:10.130Z,41.41
2018-03-21T07:49:36.107Z,41.24
2018-03-21T07:52:02.075Z,41.32
2018-03-21T07:54:28.046Z,41.23
2018-03-21T07:56:54.013Z,41.51
2018-03-21T07:59:19.992Z,41.39
2018-03-21T08:01:45.969Z,41.59
2018-03-21T08:04:11.935Z,41.45
2018-03-21T08:06:37.906Z,41.46
2018-03-21T08:09:03.853Z,41.63
2018-03-21T08:11:29.843Z,41.68
2018-03-21T08:13:55.807Z,41.70
2018-03-21T08:16:21.797Z,41.62
2018-03-21T08:18:47.765Z,41.45
2018-03-21T08:21:13.752Z,41.93
2018-03-21T08:23:39.725Z,41.88
2018-03-21T08:26:05.697Z,41.81
2018-03-21T08:28:31.644Z,41.86
2018-03-21T08:30:57.819Z,41.88
2018-03-21T08:33:23.877Z,42.18
2018-03-21T08:35:49.923Z,42.01
2018-03-21T08:38:15.875Z,42.12
2018-03-21T08:40:41.837Z,41.90
2018-03-21T08:43:07.792Z,41.82
2018-03-21T08:45:33.854Z,41.89
2018-03-21T08:47:59.872Z,41.83
2018-03-21T08:50:25.848Z,41.54
2018-03-21T08:52:51.804Z,41.66
2018-03-21T08:55:17.859Z,41.55
2018-03-21T08:57:43.838Z,41.43
2018-03-21T09:00:09.815Z,41.61
2018-03-21T09:02:35.789Z,41.82
2018-03-21T09:05:01.762Z,42.01
2018-03-21T09:07:27.760Z,41.88
2018-03-21T09:09:53.693Z,42.63
2018-03-21T09:12:19.686Z,42.27
2018-03-21T09:14:45.648Z,42.01
2018-03-21T09:17:11.636Z,41.75
2018-03-21T09:19:37.627Z,41.81
2018-03-21T09:22:03.597Z,41.79
2018-03-21T09:24:29.549Z,41.83
2018-03-21T09:26:55.515Z,41.90
2018-03-21T09:29:21.480Z,41.73
2018-03-21T09:31:47.442Z,42.05
2018-03-21T09:34:13.410Z,42.73
2018-03-21T09:36:39.375Z,42.67
2018-03-21T09:39:05.436Z,42.25
2018-03-21T09:41:31.334Z,42.28
2018-03-21T09:43:57.296Z,42.56
2018-03-21T09:46:23.299Z,43.24
2018-03-21T09:48:49.279Z,42.50
2018-03-21T09:51:15.257Z,43.30
2018-03-21T09:53:41.237Z,41.91
2018-03-21T09:56:07.209Z,40.10
2018-03-21T09:58:33.192Z,41.25
2018-03-21T10:00:59.147Z,41.60
2018-03-21T10:03:25.116Z,41.69
2018-03-21T10:05:51.075Z,41.46
2018-03-21T10:08:17.105Z,41.62
2018-03-21T10:10:43.062Z,41.48
2018-03-21T10:13:09.047Z,41.64
2018-03-21T10:15:35.004Z,41.77
2018-03-21T10:18:00.973Z,41.71
2018-03-21T10:20:26.922Z,41.92
2018-03-21T10:22:52.941Z,41.73
2018-03-21T10:25:18.898Z,41.67
2018-03-21T10:27:44.878Z,42.01
2018-03-21T10:30:10.909Z,41.98
2018-03-21T10:32:36.865Z,41.81
2018-03-21T10:35:02.845Z,41.91
2018-03-21T10:37:28.793Z,42.33
2018-03-21T10:39:54.782Z,42.27
2018-03-21T10:42:20.745Z,42.47
2018-03-21T10:44:46.714Z,42.46
2018-03-21T10:47:12.675Z,42.30
2018-03-21T10:49:38.647Z,42.28
2018-03-21T10:52:04.638Z,42.32
2018-03-21T10:54:30.666Z,42.51
2018-03-21T10:56:56.610Z,42.49
2018-03-21T10:59:22.581Z,42.23
2018-03-21T11:01:48.540Z,42.29
2018-03-21T11:04:14.509Z,41.83
2018-03-21T11:06:40.474Z,41.75
2018-03-21T11:09:06.433Z,41.60
2018-03-21T11:11:32.399Z,41.53
2018-03-21T11:13:58.357Z,41.90
2018-03-21T11:16:24.317Z,41.96
2018-03-21T11:18:50.317Z,41.89
2018-03-21T11:21:16.287Z,42.19
2018-03-21T11:23:42.306Z,42.10
2018-03-21T11:26:08.280Z,42.25
2018-03-21T11:28:34.268Z,41.69
2018-03-21T11:31:00.249Z,41.65
2018-03-21T11:33:26.225Z,42.83
2018-03-21T11:35:52.187Z,42.22
2018-03-21T11:38:18.184Z,40.54
2018-03-21T11:40:44.133Z,39.50
2018-03-21T11:43:10.102Z,39.33
2018-03-21T11:45:36.061Z,38.90
2018-03-21T11:48:02.048Z,39.00
2018-03-21T11:50:28.008Z,39.29
2018-03-21T11:52:53.988Z,40.09
2018-03-21T11:55:19.953Z,40.67
2018-03-21T11:57:45.971Z,40.79
2018-03-21T12:00:11.942Z,40.92
2018-03-21T12:02:37.902Z,41.31
2018-03-21T12:05:03.856Z,41.51
2018-03-21T12:07:29.817Z,41.62
2018-03-21T12:09:55.771Z,41.32
2018-03-21T12:12:21.759Z,41.38
2018-03-21T12:14:47.714Z,41.70
2018-03-21T12:17:13.700Z,41.69
2018-03-21T12:19:39.668Z,41.40
2018-03-21T12:22:05.625Z,41.56
2018-03-21T12:24:31.582Z,41.71
2018-03-21T12:26:57.537Z,41.87
2018-03-21T12:29:23.489Z,41.95
2018-03-21T12:31:49.449Z,41.79
2018-03-21T12:34:15.430Z,41.66
2018-03-21T12:36:41.393Z,41.91
2018-03-21T12:39:07.358Z,42.13
2018-03-21T12:41:33.310Z,42.06
2018-03-21T12:43:59.296Z,41.69
2018-03-21T12:46:25.250Z,41.48
2018-03-21T12:48:51.210Z,41.74
2018-03-21T12:51:17.176Z,41.81
2018-03-21T12:53:43.158Z,41.85
2018-03-21T12:56:09.195Z,42.10
2018-03-21T12:58:35.105Z,42.39
2018-03-21T13:01:01.086Z,41.96
2018-03-21T13:03:27.057Z,42.02
2018-03-21T13:05:53.028Z,42.10
2018-03-21T13:08:18.983Z,42.00
2018-03-21T13:10:44.992Z,42.08
2018-03-21T13:13:10.939Z,42.29
2018-03-21T13:15:36.906Z,42.44
2018-03-21T13:18:02.879Z,42.52
2018-03-21T13:20:28.843Z,42.31
2018-03-21T13:22:54.814Z,42.16
2018-03-21T13:25:20.792Z,42.15
2018-03-21T13:27:46.781Z,42.18
2018-03-21T13:30:12.756Z,42.18
2018-03-21T13:32:38.752Z,42.11
2018-03-21T13:35:04.757Z,42.15
2018-03-21T13:37:30.719Z,41.98
2018-03-21T13:39:56.698Z,42.27
2018-03-21T13:42:22.682Z,42.11
2018-03-21T13:44:48.705Z,42.61
2018-03-21T13:47:14.676Z,42.62
2018-03-21T13:49:40.630Z,42.72
2018-03-21T13:52:06.607Z,42.91
2018-03-21T13:54:32.576Z,42.79
2018-03-21T13:56:58.590Z,42.80
2018-03-21T13:59:24.602Z,43.09
2018-03-21T14:01:50.578Z,42.78
2018-03-21T14:04:16.557Z,42.61
2018-03-21T14:06:42.552Z,42.90
2018-03-21T14:09:08.601Z,42.49
2018-03-21T14:11:34.588Z,42.40
2018-03-21T14:14:00.522Z,42.54
2018-03-21T14:16:26.512Z,42.75
2018-03-21T14:18:52.475Z,42.89
2018-03-21T14:21:18.648Z,42.83
2018-03-21T14:23:44.669Z,44.23
2018-03-21T14:26:10.662Z,43.62
2018-03-21T14:28:36.707Z,43.69
2018-03-21T14:31:02.691Z,43.60
2018-03-21T14:33:28.650Z,43.53
2018-03-21T14:35:54.700Z,43.53
2018-03-21T14:38:20.733Z,43.58
2018-03-21T14:40:46.709Z,43.63
2018-03-21T14:43:12.691Z,43.70
2018-03-21T14:45:38.695Z,43.75
2018-03-21T14:48:04.682Z,44.26
2018-03-21T14:50:30.661Z,43.98
2018-03-21T14:52:56.654Z,43.76
2018-03-21T14:55:22.637Z,43.71
2018-03-21T14:57:48.589Z,43.80
2018-03-21T15:00:14.554Z,43.65
2018-03-21T15:02:40.545Z,43.58
2018-03-21T15:05:06.528Z,43.67
2018-03-21T15:07:32.495Z,43.78
2018-03-21T15:09:58.542Z,43.60
2018-03-21T15:12:24.503Z,43.34
2018-03-21T15:14:50.490Z,43.41
2018-03-21T15:17:16.498Z,43.41
2018-03-21T15:19:42.488Z,43.51
2018-03-21T15:22:08.449Z,43.54
2018-03-21T15:24:34.408Z,43.30
2018-03-21T15:27:00.383Z,43.10
2018-03-21T15:29:26.351Z,43.35
2018-03-21T15:31:52.314Z,43.05
2018-03-21T15:34:18.274Z,42.63
2018-03-21T15:36:44.243Z,43.02
2018-03-21T15:39:10.203Z,43.06
2018-03-21T15:41:36.182Z,42.97
2018-03-21T15:44:02.160Z,43.17
2018-03-21T15:46:28.162Z,43.32
2018-03-21T15:48:54.135Z,43.34
2018-03-21T15:51:20.153Z,43.42
2018-03-21T15:53:46.135Z,43.37
2018-03-21T15:56:12.098Z,43.45
2018-03-21T15:58:38.070Z,43.37
2018-03-21T16:01:04.055Z,43.45
2018-03-21T16:03:30.019Z,43.62
2018-03-21T16:05:56.059Z,43.61
2018-03-21T16:08:21.982Z,43.65
2018-03-21T16:10:47.949Z,43.81
2018-03-21T16:13:13.904Z,43.66
2018-03-21T16:15:39.865Z,43.74
2018-03-21T16:18:05.811Z,43.67
2018-03-21T16:20:31.769Z,43.81
2018-03-21T16:22:57.763Z,43.86
2018-03-21T16:25:23.727Z,43.92
2018-03-21T16:27:49.677Z,43.77
2018-03-21T16:30:15.678Z,43.77
2018-03-21T16:32:41.639Z,43.82
2018-03-21T16:35:07.613Z,43.92
2018-03-21T16:37:33.574Z,43.82
2018-03-21T16:39:59.551Z,43.81
2018-03-21T16:42:25.525Z,43.79
2018-03-21T16:44:51.618Z,43.96
2018-03-21T16:47:17.644Z,43.83
2018-03-21T16:49:43.610Z,43.63
2018-03-21T16:52:09.590Z,43.49
2018-03-21T16:54:35.536Z,43.71
2018-03-21T16:57:01.526Z,43.75
2018-03-21T16:59:27.536Z,43.67
2018-03-21T17:01:53.535Z,43.51
2018-03-21T17:04:19.498Z,43.62
2018-03-21T17:06:45.450Z,43.40
2018-03-21T17:09:11.507Z,43.65
2018-03-21T17:11:37.482Z,43.58
2018-03-21T17:14:03.455Z,43.45
2018-03-21T17:16:29.419Z,43.43
2018-03-21T17:18:55.385Z,43.47
2018-03-21T17:21:21.363Z,43.60
2018-03-21T17:23:47.426Z,43.36
2018-03-21T17:26:13.431Z,43.25
2018-03-21T17:28:39.388Z,43.51
2018-03-21T17:31:05.388Z,43.16
2018-03-21T17:33:31.394Z,43.19
2018-03-21T17:35:57.372Z,42.95
2018-03-21T17:38:23.387Z,42.96
2018-03-21T17:40:49.363Z,43.38
2018-03-21T17:43:15.348Z,43.42
2018-03-21T17:45:41.359Z,43.18
2018-03-21T17:48:07.337Z,43.19
2018-03-21T17:50:33.318Z,43.18
2018-03-21T17:52:59.312Z,43.12
2018-03-21T17:55:25.295Z,43.24
2018-03-21T17:57:51.267Z,43.34
2018-03-21T18:00:17.293Z,43.28
2018-03-21T18:02:43.266Z,43.27
2018-03-21T18:05:09.240Z,43.32
2018-03-21T18:07:35.205Z,43.18
2018-03-21T18:10:01.251Z,43.97
2018-03-21T18:12:27.228Z,43.45
2018-03-21T18:14:53.190Z,43.52
2018-03-21T18:17:19.150Z,43.32
2018-03-21T18:19:45.236Z,43.18
2018-03-21T18:22:11.200Z,43.84
2018-03-21T18:24:37.205Z,43.53
2018-03-21T18:27:03.319Z,43.52
2018-03-21T18:29:29.306Z,43.68
2018-03-21T18:31:55.266Z,43.54
2018-03-21T18:34:21.255Z,43.59
2018-03-21T18:36:47.239Z,43.71
2018-03-21T18:39:13.212Z,43.92
2018-03-21T18:41:39.172Z,43.76
2018-03-21T18:44:05.156Z,43.75
2018-03-21T18:46:31.133Z,43.70
2018-03-21T18:48:57.108Z,43.84
2018-03-21T18:51:23.084Z,43.71
2018-03-21T18:53:49.058Z,43.85
2018-03-21T18:56:15.076Z,43.79
2018-03-21T18:58:41.062Z,44.00
2018-03-21T19:01:07.044Z,43.98
2018-03-21T19:03:32.994Z,43.80
2018-03-21T19:05:58.961Z,43.85
2018-03-21T19:08:24.935Z,43.87
2018-03-21T19:10:50.898Z,43.77
2018-03-21T19:13:20.148Z,43.88
2018-03-21T19:15:42.880Z,43.82
2018-03-21T19:18:08.843Z,43.91
2018-03-21T19:20:34.828Z,44.13
2018-03-21T19:23:00.815Z,43.92
2018-03-21T19:25:26.779Z,43.85
2018-03-21T19:27:52.913Z,43.84
2018-03-21T19:30:18.907Z,43.91
2018-03-21T19:32:44.895Z,44.01
2018-03-21T19:35:10.879Z,44.12
2018-03-21T19:37:36.859Z,43.71
2018-03-21T19:40:02.830Z,43.84
2018-03-21T19:42:28.813Z,43.85
2018-03-21T19:44:54.792Z,43.90
2018-03-21T19:47:20.798Z,43.86
2018-03-21T19:49:46.774Z,43.89
2018-03-21T19:52:12.755Z,43.87
2018-03-21T19:54:38.726Z,43.85
2018-03-21T19:57:04.699Z,43.95
2018-03-21T19:59:30.687Z,43.84
2018-03-21T20:01:56.656Z,43.98
2018-03-21T20:04:22.664Z,44.01
2018-03-21T20:06:48.700Z,43.86
2018-03-21T20:09:14.722Z,43.96
2018-03-21T20:11:40.687Z,43.87
2018-03-21T20:14:06.675Z,43.99
2018-03-21T20:16:32.726Z,43.90
2018-03-21T20:18:58.711Z,43.90
2018-03-21T20:21:24.730Z,43.97
2018-03-21T20:23:50.718Z,43.88
2018-03-21T20:26:16.682Z,43.80
2018-03-21T20:28:42.654Z,43.93
2018-03-21T20:31:08.727Z,43.86
2018-03-21T20:33:34.699Z,43.86
2018-03-21T20:36:00.662Z,44.06
2018-03-21T20:38:26.646Z,43.77
2018-03-21T20:40:52.627Z,43.94
2018-03-21T20:43:18.587Z,44.14
2018-03-21T20:45:44.623Z,44.13
2018-03-21T20:48:10.619Z,43.97
2018-03-21T20:50:36.627Z,44.12
2018-03-21T20:53:02.618Z,44.15
2018-03-21T20:55:28.611Z,44.16
2018-03-21T20:57:54.593Z,44.02
2018-03-21T21:00:20.609Z,44.14
2018-03-21T21:02:46.599Z,44.09
2018-03-21T21:05:12.672Z,44.06
2018-03-21T21:07:38.661Z,43.94
2018-03-21T21:10:04.619Z,44.01
2018-03-21T21:12:30.966Z,44.08
2018-03-21T21:14:56.934Z,44.16
2018-03-21T21:17:22.949Z,44.21
2018-03-21T21:19:48.913Z,44.04
2018-03-21T21:22:14.920Z,44.21
2018-03-21T21:24:40.899Z,44.32
2018-03-21T21:27:06.860Z,44.46
2018-03-21T21:29:32.918Z,44.25
2018-03-21T21:31:58.888Z,44.40
2018-03-21T21:34:24.872Z,44.60
2018-03-21T21:36:50.952Z,44.29
2018-03-21T21:39:17.942Z,44.25
2018-03-21T21:41:43.897Z,44.36
2018-03-21T21:44:10.847Z,44.36
2018-03-21T21:46:36.804Z,44.53
2018-03-21T21:49:02.779Z,44.52
2018-03-21T21:51:28.726Z,44.24
2018-03-21T21:53:54.694Z,44.38
2018-03-21T21:56:20.689Z,44.42
2018-03-21T21:58:46.660Z,44.29
2018-03-21T22:01:12.667Z,44.38
2018-03-21T22:03:38.629Z,44.53
2018-03-21T22:06:04.605Z,44.40
2018-03-21T22:08:30.678Z,44.40
2018-03-21T22:10:56.654Z,44.38
2018-03-21T22:13:22.638Z,44.43
2018-03-21T22:15:48.704Z,44.53
2018-03-21T22:18:14.702Z,44.63
2018-03-21T22:20:40.658Z,44.83
2018-03-21T22:23:06.650Z,44.64
2018-03-21T22:25:32.614Z,44.49
2018-03-21T22:27:58.569Z,44.47
2018-03-21T22:30:24.524Z,44.55
2018-03-21T22:32:50.606Z,44.53
2018-03-21T22:35:16.607Z,44.30
2018-03-21T22:37:42.571Z,44.45
2018-03-21T22:40:08.846Z,44.52
2018-03-21T22:42:34.810Z,45.40
2018-03-21T22:45:00.762Z,44.79
2018-03-21T22:47:26.718Z,44.60
2018-03-21T22:49:52.701Z,44.62
2018-03-21T22:52:18.675Z,44.66
2018-03-21T22:54:44.894Z,44.56
2018-03-21T22:57:10.846Z,44.49
2018-03-21T22:59:36.817Z,44.61
2018-03-21T23:02:02.792Z,44.67
2018-03-21T23:04:28.774Z,44.79
2018-03-21T23:06:54.838Z,44.74
2018-03-21T23:09:20.822Z,44.66
2018-03-21T23:11:46.781Z,44.56
2018-03-21T23:14:12.785Z,44.40
2018-03-21T23:16:38.797Z,44.62
2018-03-21T23:19:04.779Z,44.55
2018-03-21T23:21:30.734Z,44.49
2018-03-21T23:23:56.721Z,44.43
2018-03-21T23:26:22.701Z,44.47
2018-03-21T23:28:48.789Z,44.28
2018-03-21T23:31:14.802Z,44.44
2018-03-21T23:33:40.770Z,44.47
2018-03-21T23:36:06.766Z,44.38
2018-03-21T23:38:32.771Z,44.29
2018-03-21T23:40:58.767Z,44.55
2018-03-21T23:43:24.710Z,44.43
2018-03-21T23:45:50.692Z,44.34
2018-03-21T23:48:16.696Z,44.42
2018-03-21T23:50:42.656Z,44.29
2018-03-21T23:53:08.640Z,44.29
2018-03-21T23:55:34.611Z,44.47
2018-03-21T23:58:00.598Z,44.20
